createdAt,value
2022-11-11T00:01:59.669Z,101674.34
2022-11-11T00:07:03.794Z,101697.75
2022-11-11T00:12:06.932Z,101683.09
2022-11-11T00:17:32.312Z,101665.72
2022-11-11T00:22:53.237Z,101701.22
2022-11-11T00:27:55.668Z,101698.50
2022-11-11T00:32:58.296Z,101689.84
2022-11-11T00:38:08.929Z,101714.06
2022-11-11T00:43:11.273Z,101675.88
2022-11-11T00:48:32.203Z,101709.66
2022-11-11T00:53:35.724Z,101688.28
2022-11-11T00:58:38.071Z,101675.78
2022-11-11T01:03:40.707Z,101693.31
2022-11-11T01:08:43.058Z,101681.34
2022-11-11T01:13:46.009Z,101713.88
2022-11-11T01:18:48.979Z,101717.16
2022-11-11T01:23:52.943Z,101679.09
2022-11-11T01:28:56.986Z,101708.84
2022-11-11T01:33:59.273Z,101681.63
2022-11-11T01:39:03.112Z,101713.63
2022-11-11T01:44:14.420Z,101708.34
2022-11-11T01:49:26.534Z,101707.72
2022-11-11T01:54:47.204Z,101705.34
2022-11-11T01:59:54.035Z,101672.28
2022-11-11T02:05:19.724Z,101694.25
2022-11-11T02:10:24.521Z,101676.63
2022-11-11T02:15:27.086Z,101695.56
2022-11-11T02:20:34.437Z,101697.16
2022-11-11T02:25:40.184Z,101701.00
2022-11-11T02:30:42.541Z,101680.09
2022-11-11T02:35:55.396Z,101680.41
2022-11-11T02:41:16.126Z,101679.69
2022-11-11T02:46:18.333Z,101676.03
2022-11-11T02:51:20.587Z,101675.63
2022-11-11T02:56:41.155Z,101675.09
2022-11-11T03:01:43.522Z,101699.16
2022-11-11T03:06:45.881Z,101683.84
2022-11-11T03:11:48.120Z,101709.88
2022-11-11T03:17:09.449Z,101690.59
2022-11-11T03:27:34.018Z,101710.78
2022-11-11T03:32:36.166Z,101726.50
2022-11-11T03:37:57.128Z,101687.28
2022-11-11T03:43:04.175Z,101663.16
2022-11-11T03:48:07.932Z,101688.00
2022-11-11T03:53:10.578Z,101721.59
2022-11-11T03:58:13.333Z,101710.91
2022-11-11T04:03:36.789Z,101720.31
2022-11-11T04:08:57.655Z,101705.13
2022-11-11T04:14:24.138Z,101724.69
2022-11-11T04:19:45.002Z,101707.34
2022-11-11T04:25:05.602Z,101706.97
2022-11-11T04:30:08.443Z,101712.03
2022-11-11T04:35:14.371Z,101710.47
2022-11-11T04:40:35.562Z,101710.47
2022-11-11T04:45:39.528Z,101725.13
2022-11-11T04:50:44.084Z,101739.31
2022-11-11T04:56:05.591Z,101720.22
2022-11-11T05:01:08.063Z,101736.00
2022-11-11T05:06:29.024Z,101712.53
2022-11-11T05:11:34.310Z,101732.41
2022-11-11T05:17:09.909Z,101742.66
2022-11-11T05:22:32.263Z,101731.38
2022-11-11T05:27:34.544Z,101723.50
2022-11-11T05:32:37.136Z,101761.50
2022-11-11T05:37:39.447Z,101782.28
2022-11-11T05:42:48.475Z,101782.81
2022-11-11T05:47:53.094Z,101790.78
2022-11-11T05:52:56.705Z,101792.69
2022-11-11T05:57:59.037Z,101794.72
2022-11-11T06:03:06.465Z,101810.91
2022-11-11T06:08:08.817Z,101795.25
2022-11-11T06:13:11.048Z,101821.78
2022-11-11T06:18:13.227Z,101822.22
2022-11-11T06:23:15.570Z,101821.16
2022-11-11T06:28:19.068Z,101841.72
2022-11-11T06:33:22.455Z,101825.31
2022-11-11T06:38:24.929Z,101835.97
2022-11-11T06:43:27.555Z,101802.22
2022-11-11T06:48:30.650Z,101844.59
2022-11-11T06:53:33.251Z,101848.22
2022-11-11T06:58:35.750Z,101851.25
2022-11-11T07:03:38.201Z,101821.22
2022-11-11T07:08:44.901Z,101808.94
2022-11-11T07:13:47.177Z,101844.16
2022-11-11T07:18:49.416Z,101823.03
2022-11-11T07:23:51.861Z,101830.84
2022-11-11T07:28:54.144Z,101838.31
2022-11-11T07:33:56.341Z,101823.19
2022-11-11T07:38:58.673Z,101833.75
2022-11-11T07:44:00.901Z,101846.75
2022-11-11T07:49:03.322Z,101867.25
2022-11-11T07:54:05.584Z,101852.31
2022-11-11T07:59:07.860Z,101843.59
2022-11-11T08:04:10.247Z,101854.09
2022-11-11T08:09:12.444Z,101853.91
2022-11-11T08:14:14.673Z,101830.53
2022-11-11T08:19:16.912Z,101841.81
2022-11-11T08:29:42.177Z,101870.75
2022-11-11T08:34:44.416Z,101857.63
2022-11-11T08:39:46.831Z,101844.78
2022-11-11T08:44:49.766Z,101863.28
2022-11-11T08:49:52.250Z,101865.41
2022-11-11T08:54:54.630Z,101872.13
2022-11-11T08:59:56.882Z,101858.28
2022-11-11T09:04:59.278Z,101871.53
2022-11-11T09:10:01.687Z,101862.59
2022-11-11T09:15:04.531Z,101863.50
2022-11-11T09:20:07.510Z,101859.56
2022-11-11T09:25:10.042Z,101848.44
2022-11-11T09:30:12.647Z,101864.09
2022-11-11T09:35:15.227Z,101857.13
2022-11-11T09:40:20.380Z,101823.66
2022-11-11T09:45:38.234Z,101848.22
2022-11-11T09:50:43.134Z,101785.56
2022-11-11T09:56:02.423Z,101826.28
2022-11-11T10:01:19.755Z,101793.66
2022-11-11T10:06:27.649Z,101827.63
2022-11-11T10:11:58.037Z,101795.63
2022-11-11T10:17:13.141Z,101800.78
2022-11-11T10:22:22.928Z,101801.22
2022-11-11T10:27:25.519Z,101779.91
2022-11-11T10:32:30.357Z,101782.03
2022-11-11T10:37:42.007Z,101767.53
2022-11-11T10:42:46.642Z,101777.28
2022-11-11T10:48:03.606Z,101771.13
2022-11-11T10:53:19.751Z,101756.03
2022-11-11T10:58:31.758Z,101769.13
2022-11-11T11:03:58.375Z,101730.38
2022-11-11T11:09:14.922Z,101740.97
2022-11-11T11:14:28.658Z,101735.81
2022-11-11T11:19:31.226Z,101718.56
2022-11-11T11:24:42.523Z,101706.25
2022-11-11T11:29:45.889Z,101682.47
2022-11-11T11:34:50.267Z,101705.75
2022-11-11T11:40:04.921Z,101700.78
2022-11-11T11:45:17.548Z,101703.50
2022-11-11T11:50:41.446Z,101697.44
2022-11-11T11:55:50.258Z,101671.16
2022-11-11T12:01:20.148Z,101693.94
2022-11-11T12:06:22.403Z,101694.44
2022-11-11T12:11:43.466Z,101695.28
2022-11-11T12:17:01.693Z,101670.66
2022-11-11T12:22:25.555Z,101680.28
2022-11-11T12:27:52.589Z,101671.75
2022-11-11T12:33:05.365Z,101652.53
2022-11-11T12:38:44.269Z,101649.22
2022-11-11T12:43:58.274Z,101643.53
2022-11-11T12:49:12.957Z,101644.38
2022-11-11T12:54:30.327Z,101630.19
2022-11-11T12:59:58.689Z,101639.41
2022-11-11T13:05:46.300Z,101625.81
2022-11-11T13:11:06.933Z,101623.47
2022-11-11T13:16:10.343Z,101618.25
2022-11-11T13:21:16.814Z,101620.31
2022-11-11T13:26:35.929Z,101616.97
2022-11-11T13:31:40.906Z,101601.06
2022-11-11T13:36:52.540Z,101589.91
2022-11-11T13:41:57.637Z,101579.88
2022-11-11T13:47:05.067Z,101568.38
2022-11-11T13:52:33.632Z,101617.63
2022-11-11T13:57:49.527Z,101594.44
2022-11-11T14:03:20.423Z,101611.91
2022-11-11T14:08:47.577Z,101619.53
2022-11-11T14:13:49.854Z,101577.09
2022-11-11T14:18:52.093Z,101615.53
2022-11-11T14:23:56.110Z,101623.16
2022-11-11T14:29:06.050Z,101623.94
2022-11-11T14:34:08.230Z,101622.25
2022-11-11T14:39:19.537Z,101617.66
2022-11-11T14:44:28.077Z,101627.31
2022-11-11T14:49:55.327Z,101588.03
2022-11-11T14:55:25.910Z,101627.19
2022-11-11T15:00:31.931Z,101627.66
2022-11-11T15:06:11.484Z,101640.63
2022-11-11T15:11:36.838Z,101611.16
2022-11-11T15:17:19.445Z,101619.88
2022-11-11T15:22:38.837Z,101637.31
2022-11-11T15:27:55.645Z,101624.88
2022-11-11T15:33:15.729Z,101634.66
2022-11-11T15:38:20.257Z,101634.16
2022-11-11T15:43:31.680Z,101619.56
2022-11-11T15:48:42.942Z,101634.47
2022-11-11T15:53:45.484Z,101632.81
2022-11-11T15:58:47.765Z,101623.16
2022-11-11T16:03:50.334Z,101634.78
2022-11-11T16:08:57.099Z,101636.03
2022-11-11T16:14:08.527Z,101640.00
2022-11-11T16:19:32.762Z,101654.56
2022-11-11T16:24:40.179Z,101655.78
2022-11-11T16:29:42.468Z,101645.59
2022-11-11T16:34:48.611Z,101660.91
2022-11-11T16:39:50.878Z,101683.75
2022-11-11T16:45:00.324Z,101657.50
2022-11-11T16:50:25.106Z,101683.91
2022-11-11T16:55:32.538Z,101699.78
2022-11-11T17:00:34.883Z,101685.06
2022-11-11T17:05:56.884Z,101711.44
2022-11-11T17:11:00.733Z,101662.81
2022-11-11T17:16:05.575Z,101716.38
2022-11-11T17:21:08.198Z,101714.78
2022-11-11T17:26:10.541Z,101727.94
2022-11-11T17:31:13.633Z,101713.03
2022-11-11T17:36:15.852Z,101716.94
2022-11-11T17:41:18.101Z,101709.47
2022-11-11T17:46:20.508Z,101710.41
2022-11-11T17:51:25.029Z,101733.16
2022-11-11T17:56:27.395Z,101727.34
2022-11-11T18:01:29.645Z,101718.59
2022-11-11T18:06:33.572Z,101717.94
2022-11-11T18:11:36.927Z,101730.97
2022-11-11T18:16:39.263Z,101731.34
2022-11-11T18:21:44.847Z,101729.66
2022-11-11T18:26:47.103Z,101728.19
2022-11-11T18:31:54.793Z,101705.06
2022-11-11T18:36:58.408Z,101714.66
2022-11-11T18:42:00.654Z,101708.69
2022-11-11T18:47:02.863Z,101730.09
2022-11-11T18:52:05.317Z,101729.66
2022-11-11T18:57:07.792Z,101735.72
2022-11-11T19:02:10.018Z,101701.63
2022-11-11T19:07:12.387Z,101722.53
2022-11-11T19:12:14.661Z,101721.53
2022-11-11T19:17:17.072Z,101718.84
2022-11-11T19:22:19.265Z,101732.53
2022-11-11T19:27:21.659Z,101736.81
2022-11-11T19:32:23.955Z,101745.03
2022-11-11T19:37:26.357Z,101722.34
2022-11-11T19:42:28.728Z,101753.44
2022-11-11T19:47:31.406Z,101757.50
2022-11-11T19:52:33.947Z,101759.16
2022-11-11T19:57:36.381Z,101777.31
2022-11-11T20:02:38.746Z,101780.22
2022-11-11T20:07:41.016Z,101754.44
2022-11-11T20:12:43.508Z,101726.72
2022-11-11T20:17:46.102Z,101757.63
2022-11-11T20:22:48.277Z,101743.31
2022-11-11T20:27:50.557Z,101755.59
2022-11-11T20:32:52.851Z,101746.84
2022-11-11T20:37:55.167Z,101760.56
2022-11-11T20:43:01.167Z,101763.25
2022-11-11T20:48:08.251Z,101753.38
2022-11-11T20:53:10.714Z,101749.84
2022-11-11T20:58:13.157Z,101737.53
2022-11-11T21:03:15.579Z,101725.06
2022-11-11T21:08:17.955Z,101733.91
2022-11-11T21:13:20.450Z,101717.59
2022-11-11T21:18:23.113Z,101736.91
2022-11-11T21:23:25.851Z,101747.00
2022-11-11T21:28:29.369Z,101726.84
2022-11-11T21:33:32.435Z,101738.41
2022-11-11T21:38:36.524Z,101747.16
2022-11-11T21:43:39.924Z,101741.41
2022-11-11T21:48:42.517Z,101735.16
2022-11-11T21:53:45.702Z,101738.53
2022-11-11T21:58:52.647Z,101684.97
2022-11-11T22:03:57.755Z,101726.94
2022-11-11T22:09:00.370Z,101707.53
2022-11-11T22:14:04.127Z,101692.19
2022-11-11T22:19:11.414Z,101722.47
2022-11-11T22:24:13.808Z,101700.63
2022-11-11T22:29:15.972Z,101696.56
2022-11-11T22:34:18.282Z,101712.03
2022-11-11T22:39:20.484Z,101683.75
2022-11-11T22:44:22.874Z,101694.88
2022-11-11T22:49:25.092Z,101701.97
2022-11-11T22:54:27.723Z,101692.88
2022-11-11T22:59:29.885Z,101690.81
2022-11-11T23:04:32.044Z,101667.78
2022-11-11T23:09:40.246Z,101682.06
2022-11-11T23:14:42.429Z,101699.56
2022-11-11T23:19:44.798Z,101697.91
2022-11-11T23:24:47.111Z,101684.38
2022-11-11T23:29:52.358Z,101675.03
2022-11-11T23:34:54.905Z,101695.06
2022-11-11T23:39:57.237Z,101703.50
2022-11-11T23:44:59.414Z,101705.75
2022-11-11T23:50:01.759Z,101713.53
2022-11-11T23:55:04.148Z,101708.56
